createdAt,value
2016-10-27T00:00:11.411Z,6.6
2016-10-27T00:00:32.022Z,6.7
2016-10-27T00:00:52.575Z,6.7
2016-10-27T00:01:13.137Z,6.7
2016-10-27T00:01:33.692Z,6.6
2016-10-27T00:01:54.263Z,6.7
2016-10-27T00:02:14.965Z,6.6
2016-10-27T00:02:35.539Z,6.7
2016-10-27T00:02:56.110Z,6.7
2016-10-27T00:03:16.739Z,6.7
2016-10-27T00:03:37.314Z,6.6
2016-10-27T00:03:57.911Z,6.6
2016-10-27T00:04:18.472Z,6.6
2016-10-27T00:04:39.030Z,6.6
2016-10-27T00:04:59.598Z,6.6
2016-10-27T00:05:20.183Z,6.6
2016-10-27T00:05:40.739Z,6.6
2016-10-27T00:06:01.351Z,6.7
2016-10-27T00:06:21.921Z,6.7
2016-10-27T00:06:42.490Z,6.7
2016-10-27T00:07:03.086Z,6.7
2016-10-27T00:07:23.646Z,6.7
2016-10-27T00:07:44.202Z,6.7
2016-10-27T00:08:04.810Z,6.7
2016-10-27T00:08:25.388Z,6.7
2016-10-27T00:08:45.944Z,6.7
2016-10-27T00:09:06.502Z,6.7
2016-10-27T00:09:27.087Z,6.8
2016-10-27T00:09:47.670Z,6.7
2016-10-27T00:10:08.250Z,6.7
2016-10-27T00:10:28.825Z,6.7
2016-10-27T00:10:49.386Z,6.7
2016-10-27T00:11:09.957Z,6.7
2016-10-27T00:11:30.535Z,6.7
2016-10-27T00:11:51.105Z,6.6
2016-10-27T00:12:11.662Z,6.7
2016-10-27T00:12:32.254Z,6.7
2016-10-27T00:12:52.823Z,6.7
2016-10-27T00:13:13.390Z,6.6
2016-10-27T00:13:33.942Z,6.7
2016-10-27T00:13:54.507Z,6.7
2016-10-27T00:14:15.075Z,6.7
2016-10-27T00:14:35.630Z,6.6
2016-10-27T00:14:56.198Z,6.7
2016-10-27T00:15:16.766Z,6.6
2016-10-27T00:15:37.332Z,6.7
2016-10-27T00:15:57.887Z,6.7
2016-10-27T00:16:18.449Z,6.7
2016-10-27T00:16:39.029Z,6.7
2016-10-27T00:16:59.597Z,6.7
2016-10-27T00:17:20.159Z,6.7
2016-10-27T00:17:40.718Z,6.7
2016-10-27T00:18:01.292Z,6.7
2016-10-27T00:18:21.860Z,6.8
2016-10-27T00:18:42.433Z,6.6
2016-10-27T00:19:02.992Z,6.7
2016-10-27T00:19:23.560Z,6.7
2016-10-27T00:19:44.131Z,6.7
2016-10-27T00:20:04.692Z,6.8
2016-10-27T00:20:25.273Z,6.7
2016-10-27T00:20:45.845Z,6.7
2016-10-27T00:21:06.409Z,6.7
2016-10-27T00:21:26.976Z,6.7
2016-10-27T00:21:47.556Z,6.7
2016-10-27T00:22:08.135Z,6.7
2016-10-27T00:22:28.725Z,6.7
2016-10-27T00:22:49.288Z,6.7
2016-10-27T00:23:09.851Z,6.6
2016-10-27T00:23:30.421Z,6.7
2016-10-27T00:23:51.000Z,6.7
2016-10-27T00:24:11.617Z,6.6
2016-10-27T00:24:32.191Z,6.7
2016-10-27T00:24:52.750Z,6.7
2016-10-27T00:25:13.325Z,6.6
2016-10-27T00:25:33.890Z,6.7
2016-10-27T00:25:54.456Z,6.6
2016-10-27T00:26:15.022Z,6.6
2016-10-27T00:26:35.634Z,6.6
2016-10-27T00:26:56.228Z,6.5
2016-10-27T00:27:16.798Z,6.5
2016-10-27T00:27:37.366Z,6.5
2016-10-27T00:27:57.949Z,6.5
2016-10-27T00:28:18.507Z,6.5
2016-10-27T00:28:39.103Z,6.5
2016-10-27T00:28:59.653Z,6.5
2016-10-27T00:29:20.250Z,6.5
2016-10-27T00:29:40.849Z,6.6
2016-10-27T00:30:01.426Z,6.6
2016-10-27T00:30:21.992Z,6.5
2016-10-27T00:30:42.553Z,6.6
2016-10-27T00:31:03.120Z,6.5
2016-10-27T00:31:23.718Z,6.5
2016-10-27T00:31:44.281Z,6.6
2016-10-27T00:32:04.842Z,6.6
2016-10-27T00:32:25.527Z,6.6
2016-10-27T00:32:46.093Z,6.6
2016-10-27T00:33:06.641Z,6.5
2016-10-27T00:33:27.210Z,6.6
2016-10-27T00:33:47.799Z,6.5
2016-10-27T00:34:08.362Z,6.6
2016-10-27T00:34:28.965Z,6.6
2016-10-27T00:34:49.539Z,6.6
2016-10-27T00:35:10.128Z,6.5
2016-10-27T00:35:30.695Z,6.7
2016-10-27T00:35:51.256Z,6.7
2016-10-27T00:36:11.859Z,6.6
2016-10-27T00:36:32.452Z,6.6
2016-10-27T00:36:53.058Z,6.6
2016-10-27T00:37:13.738Z,6.6
2016-10-27T00:37:34.310Z,6.6
2016-10-27T00:37:54.880Z,6.7
2016-10-27T00:38:15.451Z,6.6
2016-10-27T00:38:36.088Z,6.6
2016-10-27T00:38:56.663Z,6.6
2016-10-27T00:39:17.311Z,6.6
2016-10-27T00:39:37.911Z,6.6
2016-10-27T00:39:58.466Z,6.6
2016-10-27T00:40:19.039Z,6.6
2016-10-27T00:40:39.647Z,6.7
2016-10-27T00:41:00.204Z,6.6
2016-10-27T00:41:20.767Z,6.7
2016-10-27T00:41:41.337Z,6.6
2016-10-27T00:42:01.909Z,6.7
2016-10-27T00:42:22.467Z,6.6
2016-10-27T00:42:43.033Z,6.7
2016-10-27T00:43:03.631Z,6.7
2016-10-27T00:43:24.199Z,6.6
2016-10-27T00:43:44.766Z,6.7
2016-10-27T00:44:05.333Z,6.7
2016-10-27T00:44:25.935Z,6.7
2016-10-27T00:44:46.512Z,6.6
2016-10-27T00:45:07.080Z,6.6
2016-10-27T00:45:27.682Z,6.7
2016-10-27T00:45:48.239Z,6.5
2016-10-27T00:46:08.816Z,6.6
2016-10-27T00:46:29.409Z,6.5
2016-10-27T00:46:49.985Z,6.6
2016-10-27T00:47:10.554Z,6.6
2016-10-27T00:47:31.115Z,6.7
2016-10-27T00:47:51.689Z,6.5
2016-10-27T00:48:12.278Z,6.6
2016-10-27T00:48:32.847Z,6.6
2016-10-27T00:48:53.396Z,6.7
2016-10-27T00:49:13.989Z,6.7
2016-10-27T00:49:34.570Z,6.7
2016-10-27T00:49:55.141Z,6.7
2016-10-27T00:50:15.738Z,6.6
2016-10-27T00:50:36.313Z,6.7
2016-10-27T00:50:56.872Z,6.7
2016-10-27T00:51:17.450Z,6.7
2016-10-27T00:51:38.050Z,6.6
2016-10-27T00:51:58.613Z,6.7
2016-10-27T00:52:19.192Z,6.8
2016-10-27T00:52:39.754Z,6.6
2016-10-27T00:53:00.380Z,6.7
2016-10-27T00:53:20.972Z,6.7
2016-10-27T00:53:41.526Z,6.7
2016-10-27T00:54:02.085Z,6.7
2016-10-27T00:54:22.638Z,6.7
2016-10-27T00:54:43.204Z,6.7
2016-10-27T00:55:03.798Z,6.7
2016-10-27T00:55:24.396Z,6.7
2016-10-27T00:55:44.948Z,6.7
2016-10-27T00:56:05.557Z,6.7
2016-10-27T00:56:26.164Z,6.7
2016-10-27T00:56:46.734Z,6.7
2016-10-27T00:57:07.306Z,6.7
2016-10-27T00:57:27.866Z,6.8
2016-10-27T00:57:48.425Z,6.8
2016-10-27T00:58:08.996Z,6.7
2016-10-27T00:58:29.585Z,6.7
2016-10-27T00:58:50.168Z,6.7
2016-10-27T00:59:10.738Z,6.7
2016-10-27T00:59:31.301Z,6.7
2016-10-27T00:59:51.856Z,6.8
2016-10-27T01:00:12.457Z,6.7
2016-10-27T01:00:33.022Z,6.7
2016-10-27T01:00:53.607Z,6.7
2016-10-27T01:01:14.171Z,6.7
2016-10-27T01:01:34.764Z,6.8
2016-10-27T01:01:55.363Z,6.7
2016-10-27T01:02:15.964Z,6.8
2016-10-27T01:02:36.519Z,6.8
2016-10-27T01:02:57.070Z,6.8
2016-10-27T01:03:17.634Z,6.8
2016-10-27T01:03:38.204Z,6.8
2016-10-27T01:03:58.907Z,6.8
2016-10-27T01:04:19.455Z,6.8
2016-10-27T01:04:40.105Z,6.8
2016-10-27T01:05:00.704Z,6.7
2016-10-27T01:05:21.268Z,6.7
2016-10-27T01:05:41.897Z,6.7
2016-10-27T01:06:02.462Z,6.7
2016-10-27T01:06:23.060Z,6.8
2016-10-27T01:06:43.657Z,6.7
2016-10-27T01:07:04.244Z,6.9
2016-10-27T01:07:24.821Z,6.8
2016-10-27T01:07:45.412Z,6.8
2016-10-27T01:08:05.987Z,6.7
2016-10-27T01:08:26.552Z,6.8
2016-10-27T01:08:47.124Z,6.7
2016-10-27T01:09:07.684Z,6.7
2016-10-27T01:09:28.275Z,6.7
2016-10-27T01:09:48.841Z,6.7
2016-10-27T01:10:09.403Z,6.7
2016-10-27T01:10:29.987Z,6.7
2016-10-27T01:10:50.579Z,6.7
2016-10-27T01:11:11.149Z,6.7
2016-10-27T01:11:31.702Z,6.7
2016-10-27T01:11:52.277Z,6.7
2016-10-27T01:12:12.833Z,6.7
2016-10-27T01:12:33.387Z,6.7
2016-10-27T01:12:54.009Z,6.6
2016-10-27T01:13:14.608Z,6.7
2016-10-27T01:13:35.182Z,6.7
2016-10-27T01:13:55.739Z,6.7
2016-10-27T01:14:16.311Z,6.8
2016-10-27T01:14:36.858Z,6.7
2016-10-27T01:14:57.425Z,6.8
2016-10-27T01:15:17.990Z,6.8
2016-10-27T01:15:38.550Z,6.7
2016-10-27T01:15:59.146Z,6.7
2016-10-27T01:16:19.708Z,6.7
2016-10-27T01:16:40.267Z,6.8
2016-10-27T01:17:00.837Z,6.8
2016-10-27T01:17:21.455Z,6.8
2016-10-27T01:17:42.023Z,6.7
2016-10-27T01:18:02.618Z,6.7
2016-10-27T01:18:23.960Z,6.7
2016-10-27T01:18:44.531Z,6.7
2016-10-27T01:19:05.126Z,6.7
2016-10-27T01:19:25.697Z,6.7
2016-10-27T01:19:46.259Z,6.7
2016-10-27T01:20:06.847Z,6.7
2016-10-27T01:20:27.404Z,6.7
2016-10-27T01:20:47.995Z,6.7
2016-10-27T01:21:08.550Z,6.7
2016-10-27T01:21:29.110Z,6.7
2016-10-27T01:21:49.676Z,6.7
2016-10-27T01:22:10.228Z,6.7
2016-10-27T01:22:30.794Z,6.7
2016-10-27T01:22:51.348Z,6.7
2016-10-27T01:23:11.909Z,6.7
2016-10-27T01:23:32.485Z,6.7
2016-10-27T01:23:53.054Z,6.7
2016-10-27T01:24:13.697Z,6.7
2016-10-27T01:24:34.249Z,6.7
2016-10-27T01:24:54.804Z,6.7
2016-10-27T01:25:15.368Z,6.7
2016-10-27T01:25:35.933Z,6.7
2016-10-27T01:25:56.505Z,6.7
2016-10-27T01:26:17.064Z,6.6
2016-10-27T01:26:37.658Z,6.7
2016-10-27T01:26:58.222Z,6.7
2016-10-27T01:27:18.796Z,6.7
2016-10-27T01:27:39.360Z,6.7
2016-10-27T01:27:59.959Z,6.6
2016-10-27T01:28:20.531Z,6.6
2016-10-27T01:28:41.101Z,6.7
2016-10-27T01:29:01.668Z,6.6
2016-10-27T01:29:22.236Z,6.6
2016-10-27T01:29:42.830Z,6.6
2016-10-27T01:30:03.406Z,6.7
2016-10-27T01:30:23.988Z,6.6
2016-10-27T01:30:44.572Z,6.7
2016-10-27T01:31:05.151Z,6.6
2016-10-27T01:31:25.716Z,6.6
2016-10-27T01:31:46.281Z,6.7
2016-10-27T01:32:06.967Z,6.7
2016-10-27T01:32:27.519Z,6.7
2016-10-27T01:32:48.111Z,6.7
2016-10-27T01:33:08.686Z,6.7
2016-10-27T01:33:29.254Z,6.6
2016-10-27T01:33:49.812Z,6.7
2016-10-27T01:34:10.491Z,6.7
2016-10-27T01:34:31.041Z,6.7
2016-10-27T01:34:51.609Z,6.7
2016-10-27T01:35:12.185Z,6.7
2016-10-27T01:35:32.739Z,6.7
2016-10-27T01:35:53.334Z,6.6
2016-10-27T01:36:13.892Z,6.7
2016-10-27T01:36:34.453Z,6.7
2016-10-27T01:36:55.022Z,6.7
2016-10-27T01:37:15.588Z,6.7
2016-10-27T01:37:36.180Z,6.7
2016-10-27T01:37:56.737Z,6.7
2016-10-27T01:38:17.317Z,6.7
2016-10-27T01:38:37.880Z,6.7
2016-10-27T01:38:58.447Z,6.7
2016-10-27T01:39:19.031Z,6.7
2016-10-27T01:39:39.593Z,6.7
2016-10-27T01:40:00.157Z,6.7
2016-10-27T01:40:20.723Z,6.7
2016-10-27T01:40:41.294Z,6.7
2016-10-27T01:41:01.847Z,6.7
2016-10-27T01:41:22.419Z,6.7
2016-10-27T01:41:42.977Z,6.7
2016-10-27T01:42:03.554Z,6.7
2016-10-27T01:42:24.165Z,6.8
2016-10-27T01:42:44.728Z,6.7
2016-10-27T01:43:05.297Z,6.7
2016-10-27T01:43:25.886Z,6.7
2016-10-27T01:43:46.452Z,6.6
2016-10-27T01:44:07.007Z,6.7
2016-10-27T01:44:27.572Z,6.7
2016-10-27T01:44:48.150Z,6.7
2016-10-27T01:45:08.716Z,6.6
2016-10-27T01:45:29.267Z,6.6
2016-10-27T01:45:49.837Z,6.7
2016-10-27T01:46:10.447Z,6.7
2016-10-27T01:46:30.990Z,6.6
2016-10-27T01:46:51.567Z,6.6
2016-10-27T01:47:12.136Z,6.7
2016-10-27T01:47:32.707Z,6.7
2016-10-27T01:47:53.273Z,6.7
2016-10-27T01:48:13.883Z,6.7
2016-10-27T01:48:34.470Z,6.7
2016-10-27T01:48:55.021Z,6.7
2016-10-27T01:49:15.590Z,6.7
2016-10-27T01:49:36.152Z,6.7
2016-10-27T01:49:56.733Z,6.7
2016-10-27T01:50:17.299Z,6.7
2016-10-27T01:50:37.896Z,6.7
2016-10-27T01:50:58.470Z,6.7
2016-10-27T01:51:19.049Z,6.7
2016-10-27T01:51:39.617Z,6.7
2016-10-27T01:52:00.235Z,6.7
2016-10-27T01:52:20.798Z,6.7
2016-10-27T01:52:41.391Z,6.7
2016-10-27T01:53:01.996Z,6.7
2016-10-27T01:53:22.589Z,6.7
2016-10-27T01:53:43.151Z,6.7
2016-10-27T01:54:03.714Z,6.7
2016-10-27T01:54:24.313Z,6.7
2016-10-27T01:54:44.870Z,6.8
2016-10-27T01:55:05.458Z,6.7
2016-10-27T01:55:26.025Z,6.7
2016-10-27T01:55:46.585Z,6.7
2016-10-27T01:56:07.146Z,6.8
2016-10-27T01:56:27.705Z,6.8
2016-10-27T01:56:48.282Z,6.7
2016-10-27T01:57:08.852Z,6.8
2016-10-27T01:57:29.463Z,6.8
2016-10-27T01:57:50.036Z,6.7
2016-10-27T01:58:10.630Z,6.7
2016-10-27T01:58:31.193Z,6.7
2016-10-27T01:58:51.784Z,6.8
2016-10-27T01:59:12.351Z,6.7
2016-10-27T01:59:32.920Z,6.7
2016-10-27T01:59:53.486Z,6.7
2016-10-27T02:00:14.088Z,6.7
2016-10-27T02:00:34.681Z,6.7
2016-10-27T02:00:55.247Z,6.7
2016-10-27T02:01:15.822Z,6.7
2016-10-27T02:01:36.384Z,6.7
2016-10-27T02:01:56.994Z,6.8
2016-10-27T02:02:17.641Z,6.8
2016-10-27T02:02:38.238Z,6.7
2016-10-27T02:02:58.796Z,6.8
2016-10-27T02:03:19.371Z,6.7
2016-10-27T02:03:39.928Z,6.7
2016-10-27T02:04:00.493Z,6.8
2016-10-27T02:04:21.142Z,6.7
2016-10-27T02:04:41.741Z,6.8
2016-10-27T02:05:02.308Z,6.7
2016-10-27T02:05:22.869Z,6.7
2016-10-27T02:05:43.442Z,6.7
2016-10-27T02:06:03.993Z,6.7
2016-10-27T02:06:24.563Z,6.7
2016-10-27T02:06:45.132Z,6.8
2016-10-27T02:07:05.722Z,6.7
2016-10-27T02:07:26.278Z,6.7
2016-10-27T02:07:46.838Z,6.6
2016-10-27T02:08:07.393Z,6.7
2016-10-27T02:08:28.226Z,6.7
2016-10-27T02:08:48.802Z,6.7
2016-10-27T02:09:09.398Z,6.7
2016-10-27T02:09:29.957Z,6.7
2016-10-27T02:09:50.542Z,6.8
2016-10-27T02:10:11.118Z,6.7
2016-10-27T02:10:31.672Z,6.7
2016-10-27T02:10:52.223Z,6.7
2016-10-27T02:11:12.792Z,6.7
2016-10-27T02:11:33.356Z,6.7
2016-10-27T02:11:54.344Z,6.7
2016-10-27T02:12:14.908Z,6.7
2016-10-27T02:12:35.505Z,6.7
2016-10-27T02:12:56.057Z,6.7
2016-10-27T02:13:16.628Z,6.7
2016-10-27T02:13:37.223Z,6.6
2016-10-27T02:13:57.778Z,6.7
2016-10-27T02:14:18.393Z,6.7
2016-10-27T02:14:38.952Z,6.8
2016-10-27T02:14:59.515Z,6.7
2016-10-27T02:15:20.071Z,6.7
2016-10-27T02:15:40.670Z,6.7
2016-10-27T02:16:01.255Z,6.7
2016-10-27T02:16:21.857Z,6.7
2016-10-27T02:16:42.419Z,6.7
2016-10-27T02:17:02.987Z,6.7
2016-10-27T02:17:23.564Z,6.7
2016-10-27T02:17:44.151Z,6.7
2016-10-27T02:18:04.714Z,6.7
2016-10-27T02:18:25.294Z,6.7
2016-10-27T02:18:45.853Z,6.7
2016-10-27T02:19:06.405Z,6.7
2016-10-27T02:19:26.985Z,6.6
2016-10-27T02:19:47.541Z,6.7
2016-10-27T02:20:08.110Z,6.8
2016-10-27T02:20:28.700Z,6.7
2016-10-27T02:20:49.269Z,6.8
2016-10-27T02:21:09.833Z,6.7
2016-10-27T02:21:30.394Z,6.7
2016-10-27T02:21:50.962Z,6.8
2016-10-27T02:22:11.536Z,6.8
2016-10-27T02:22:32.115Z,6.7
2016-10-27T02:22:52.719Z,6.7
2016-10-27T02:23:13.282Z,6.7
2016-10-27T02:23:33.835Z,6.7
2016-10-27T02:23:54.449Z,6.7
2016-10-27T02:24:15.049Z,6.7
2016-10-27T02:24:35.614Z,6.7
2016-10-27T02:24:56.166Z,6.8
2016-10-27T02:25:16.733Z,6.8
2016-10-27T02:25:37.285Z,6.7
2016-10-27T02:25:57.854Z,6.7
2016-10-27T02:26:18.439Z,6.7
2016-10-27T02:26:38.998Z,6.7
2016-10-27T02:26:59.583Z,6.7
2016-10-27T02:27:20.149Z,6.8
2016-10-27T02:27:40.723Z,6.7
2016-10-27T02:28:01.304Z,6.7
2016-10-27T02:28:21.901Z,6.8
2016-10-27T02:28:42.466Z,6.7
2016-10-27T02:29:03.044Z,6.7
2016-10-27T02:29:23.647Z,6.7
2016-10-27T02:29:44.216Z,6.7
2016-10-27T02:30:04.770Z,6.8
2016-10-27T02:30:25.364Z,6.8
2016-10-27T02:30:45.951Z,6.8
2016-10-27T02:31:06.551Z,6.8
2016-10-27T02:31:27.189Z,6.8
2016-10-27T02:31:47.770Z,6.7
2016-10-27T02:32:08.330Z,6.8
2016-10-27T02:32:28.890Z,6.8
2016-10-27T02:32:49.442Z,6.8
2016-10-27T02:33:10.007Z,6.7
2016-10-27T02:33:30.577Z,6.8
2016-10-27T02:33:51.149Z,6.8
2016-10-27T02:34:11.737Z,6.8
2016-10-27T02:34:32.323Z,6.7
2016-10-27T02:34:52.882Z,6.7
2016-10-27T02:35:13.456Z,6.8
2016-10-27T02:35:34.017Z,6.7
2016-10-27T02:35:54.579Z,6.8
2016-10-27T02:36:15.132Z,6.7
2016-10-27T02:36:35.739Z,6.8
2016-10-27T02:36:56.307Z,6.8
2016-10-27T02:37:16.919Z,6.8
2016-10-27T02:37:37.550Z,6.7
2016-10-27T02:37:58.101Z,6.8
2016-10-27T02:38:18.673Z,6.7
2016-10-27T02:38:39.239Z,6.7
2016-10-27T02:38:59.809Z,6.7
2016-10-27T02:39:20.365Z,6.7
2016-10-27T02:39:40.950Z,6.7
2016-10-27T02:40:01.554Z,6.7
2016-10-27T02:40:22.168Z,6.7
2016-10-27T02:40:42.744Z,6.7
2016-10-27T02:41:03.303Z,6.7
2016-10-27T02:41:23.918Z,6.7
2016-10-27T02:41:44.497Z,6.6
2016-10-27T02:42:05.109Z,6.7
2016-10-27T02:42:25.675Z,6.6
2016-10-27T02:42:46.254Z,6.7
2016-10-27T02:43:06.855Z,6.5
2016-10-27T02:43:27.449Z,6.5
2016-10-27T02:43:48.041Z,6.6
2016-10-27T02:44:08.639Z,6.6
2016-10-27T02:44:29.219Z,6.5
2016-10-27T02:44:49.818Z,6.5
2016-10-27T02:45:10.377Z,6.6
2016-10-27T02:45:30.981Z,6.5
2016-10-27T02:45:51.596Z,6.5
2016-10-27T02:46:12.176Z,6.6
2016-10-27T02:46:32.770Z,6.6
2016-10-27T02:46:53.342Z,6.5
2016-10-27T02:47:13.911Z,6.5
2016-10-27T02:47:34.521Z,6.6
2016-10-27T02:47:55.089Z,6.6
2016-10-27T02:48:15.672Z,6.5
2016-10-27T02:48:36.229Z,6.5
2016-10-27T02:48:56.806Z,6.6
2016-10-27T02:49:17.368Z,6.6
2016-10-27T02:49:37.931Z,6.7
2016-10-27T02:49:58.500Z,6.6
2016-10-27T02:50:19.063Z,6.6
2016-10-27T02:50:39.625Z,6.7
2016-10-27T02:51:00.186Z,6.6
2016-10-27T02:51:20.740Z,6.5
2016-10-27T02:51:41.311Z,6.7
2016-10-27T02:52:01.871Z,6.7
2016-10-27T02:52:22.444Z,6.7
2016-10-27T02:52:42.990Z,6.5
2016-10-27T02:53:03.586Z,6.5
2016-10-27T02:53:24.150Z,6.5
2016-10-27T02:53:44.715Z,6.5
2016-10-27T02:54:05.348Z,6.5
2016-10-27T02:54:25.973Z,6.5
2016-10-27T02:54:46.552Z,6.6
2016-10-27T02:55:07.115Z,6.5
2016-10-27T02:55:27.746Z,6.6
2016-10-27T02:55:48.360Z,6.5
2016-10-27T02:56:08.927Z,6.5
2016-10-27T02:56:29.483Z,6.6
2016-10-27T02:56:50.049Z,6.6
2016-10-27T02:57:10.646Z,6.6
2016-10-27T02:57:31.205Z,6.5
2016-10-27T02:57:51.799Z,6.6
2016-10-27T02:58:12.366Z,6.6
2016-10-27T02:58:33.197Z,6.6
2016-10-27T02:58:53.767Z,6.5
2016-10-27T02:59:14.362Z,6.6
2016-10-27T02:59:34.921Z,6.5
2016-10-27T02:59:55.517Z,6.5
2016-10-27T03:00:16.097Z,6.5
2016-10-27T03:00:36.657Z,6.5
2016-10-27T03:00:57.221Z,6.5
2016-10-27T03:01:17.791Z,6.6
2016-10-27T03:01:38.387Z,6.5
2016-10-27T03:01:58.949Z,6.5
2016-10-27T03:02:19.542Z,6.5
2016-10-27T03:02:40.103Z,6.5
2016-10-27T03:03:00.709Z,6.6
2016-10-27T03:03:21.272Z,6.5
2016-10-27T03:03:41.828Z,6.5
2016-10-27T03:04:02.387Z,6.7
2016-10-27T03:04:22.952Z,6.6
2016-10-27T03:04:43.515Z,6.6
2016-10-27T03:05:04.074Z,6.7
2016-10-27T03:05:24.646Z,6.5
2016-10-27T03:05:45.234Z,6.5
2016-10-27T03:06:05.800Z,6.5
2016-10-27T03:06:26.413Z,6.5
2016-10-27T03:06:46.992Z,6.5
2016-10-27T03:07:07.589Z,6.5
2016-10-27T03:07:28.177Z,6.6
2016-10-27T03:07:48.732Z,6.5
2016-10-27T03:08:09.298Z,6.5
2016-10-27T03:08:29.863Z,6.5
2016-10-27T03:08:50.432Z,6.5
2016-10-27T03:09:11.035Z,6.5
2016-10-27T03:09:31.595Z,6.6
2016-10-27T03:09:52.156Z,6.5
2016-10-27T03:10:12.740Z,6.4
2016-10-27T03:10:33.304Z,6.4
2016-10-27T03:10:53.895Z,6.4
2016-10-27T03:11:14.501Z,6.4
2016-10-27T03:11:35.103Z,6.4
2016-10-27T03:11:55.667Z,6.5
2016-10-27T03:12:16.262Z,6.4
2016-10-27T03:12:36.837Z,6.4
2016-10-27T03:12:57.403Z,6.5
2016-10-27T03:13:17.980Z,6.5
2016-10-27T03:13:38.576Z,6.5
2016-10-27T03:13:59.142Z,6.4
2016-10-27T03:14:19.707Z,6.4
2016-10-27T03:14:40.264Z,6.4
2016-10-27T03:15:00.825Z,6.3
2016-10-27T03:15:21.447Z,6.3
2016-10-27T03:15:42.012Z,6.4
2016-10-27T03:16:02.605Z,6.4
2016-10-27T03:16:23.206Z,6.4
2016-10-27T03:16:43.759Z,6.3
2016-10-27T03:17:04.353Z,6.3
2016-10-27T03:17:24.904Z,6.3
2016-10-27T03:17:45.497Z,6.3
2016-10-27T03:18:06.069Z,6.3
2016-10-27T03:18:26.644Z,6.2
2016-10-27T03:18:47.205Z,6.2
2016-10-27T03:19:07.797Z,6.3
2016-10-27T03:19:28.390Z,6.3
2016-10-27T03:19:48.950Z,6.2
2016-10-27T03:20:09.520Z,6.2
2016-10-27T03:20:30.090Z,6.2
2016-10-27T03:20:50.669Z,6.2
2016-10-27T03:21:11.231Z,6.3
2016-10-27T03:21:31.792Z,6.2
2016-10-27T03:21:52.369Z,6.3
2016-10-27T03:22:12.990Z,6.2
2016-10-27T03:22:33.560Z,6.3
2016-10-27T03:22:54.157Z,6.2
2016-10-27T03:23:14.750Z,6.2
2016-10-27T03:23:35.342Z,6.3
2016-10-27T03:23:55.910Z,6.2
2016-10-27T03:24:16.482Z,6.2
2016-10-27T03:24:37.070Z,6.2
2016-10-27T03:24:57.653Z,6.2
2016-10-27T03:25:18.256Z,6.2
2016-10-27T03:25:38.822Z,6.2
2016-10-27T03:25:59.394Z,6.3
2016-10-27T03:26:19.960Z,6.2
2016-10-27T03:26:40.540Z,6.2
2016-10-27T03:27:01.144Z,6.2
2016-10-27T03:27:21.746Z,6.3
2016-10-27T03:27:42.314Z,6.3
2016-10-27T03:28:02.879Z,6.2
2016-10-27T03:28:23.431Z,6.2
2016-10-27T03:28:44.029Z,6.3
2016-10-27T03:29:04.632Z,6.3
2016-10-27T03:29:25.195Z,6.3
2016-10-27T03:29:45.772Z,6.3
2016-10-27T03:30:25.904Z,6.3
2016-10-27T03:30:46.459Z,6.4
2016-10-27T03:31:07.023Z,6.3
2016-10-27T03:31:27.595Z,6.4
2016-10-27T03:31:48.173Z,6.3
2016-10-27T03:32:08.731Z,6.3
2016-10-27T03:32:29.329Z,6.3
2016-10-27T03:32:49.902Z,6.3
2016-10-27T03:33:10.510Z,6.3
2016-10-27T03:33:31.079Z,6.4
2016-10-27T03:33:51.650Z,6.4
2016-10-27T03:34:12.219Z,6.4
2016-10-27T03:34:32.780Z,6.4
2016-10-27T03:34:53.344Z,6.4
2016-10-27T03:35:13.921Z,6.4
2016-10-27T03:35:34.499Z,6.4
2016-10-27T03:35:55.067Z,6.4
2016-10-27T03:36:15.632Z,6.5
2016-10-27T03:36:36.191Z,6.4
2016-10-27T03:36:56.777Z,6.5
2016-10-27T03:37:17.339Z,6.4
2016-10-27T03:37:37.908Z,6.4
2016-10-27T03:37:58.484Z,6.4
2016-10-27T03:38:19.046Z,6.5
2016-10-27T03:38:39.608Z,6.4
2016-10-27T03:39:00.180Z,6.4
2016-10-27T03:39:20.778Z,6.4
2016-10-27T03:39:41.332Z,6.5
2016-10-27T03:40:01.895Z,6.4
2016-10-27T03:40:22.487Z,6.4
2016-10-27T03:40:43.044Z,6.4
2016-10-27T03:41:03.607Z,6.5
2016-10-27T03:41:24.192Z,6.4
2016-10-27T03:41:44.755Z,6.4
2016-10-27T03:42:05.308Z,6.4
2016-10-27T03:42:25.866Z,6.4
2016-10-27T03:42:46.436Z,6.4
2016-10-27T03:43:07.006Z,6.4
2016-10-27T03:43:27.613Z,6.4
2016-10-27T03:43:48.178Z,6.4
2016-10-27T03:44:08.776Z,6.4
2016-10-27T03:44:29.348Z,6.3
2016-10-27T03:44:49.950Z,6.4
2016-10-27T03:45:10.516Z,6.4
2016-10-27T03:45:31.118Z,6.4
2016-10-27T03:45:51.692Z,6.4
2016-10-27T03:46:12.260Z,6.5
2016-10-27T03:46:32.824Z,6.4
2016-10-27T03:46:53.386Z,6.4
2016-10-27T03:47:13.956Z,6.4
2016-10-27T03:47:34.533Z,6.4
2016-10-27T03:47:55.099Z,6.4
2016-10-27T03:48:15.672Z,6.5
2016-10-27T03:48:36.281Z,6.4
2016-10-27T03:48:56.853Z,6.5
2016-10-27T03:49:17.452Z,6.5
2016-10-27T03:49:38.052Z,6.4
2016-10-27T03:49:58.617Z,6.4
2016-10-27T03:50:19.180Z,6.4
2016-10-27T03:50:39.753Z,6.4
2016-10-27T03:51:00.329Z,6.5
2016-10-27T03:51:20.950Z,6.4
2016-10-27T03:51:41.532Z,6.4
2016-10-27T03:52:02.096Z,6.4
2016-10-27T03:52:22.810Z,6.5
2016-10-27T03:52:43.391Z,6.5
2016-10-27T03:53:03.959Z,6.4
2016-10-27T03:53:24.547Z,6.4
2016-10-27T03:53:45.124Z,6.4
2016-10-27T03:54:05.696Z,6.4
2016-10-27T03:54:26.269Z,6.4
2016-10-27T03:54:46.897Z,6.4
2016-10-27T03:55:07.462Z,6.4
2016-10-27T03:55:28.029Z,6.5
2016-10-27T03:55:48.595Z,6.5
2016-10-27T03:56:09.176Z,6.5
2016-10-27T03:56:29.749Z,6.5
2016-10-27T03:56:50.310Z,6.4
2016-10-27T03:57:10.914Z,6.5
2016-10-27T03:57:31.475Z,6.4
2016-10-27T03:57:52.083Z,6.4
2016-10-27T03:58:12.650Z,6.4
2016-10-27T03:58:33.256Z,6.3
2016-10-27T03:58:53.821Z,6.3
2016-10-27T03:59:14.398Z,6.3
2016-10-27T03:59:34.956Z,6.4
2016-10-27T03:59:55.528Z,6.3
2016-10-27T04:00:16.097Z,6.3
2016-10-27T04:00:36.669Z,6.3
2016-10-27T04:00:57.236Z,6.4
2016-10-27T04:01:17.799Z,6.3
2016-10-27T04:01:38.353Z,6.4
2016-10-27T04:01:58.916Z,6.3
2016-10-27T04:02:19.490Z,6.2
2016-10-27T04:02:40.085Z,6.3
2016-10-27T04:03:00.640Z,6.2
2016-10-27T04:03:21.289Z,6.2
2016-10-27T04:03:41.846Z,6.2
2016-10-27T04:04:02.395Z,6.2
2016-10-27T04:04:22.957Z,6.3
2016-10-27T04:04:43.516Z,6.2
2016-10-27T04:05:04.078Z,6.3
2016-10-27T04:05:24.632Z,6.3
2016-10-27T04:05:45.205Z,6.3
2016-10-27T04:06:05.766Z,6.3
2016-10-27T04:06:26.346Z,6.2
2016-10-27T04:06:46.919Z,6.2
2016-10-27T04:07:07.487Z,6.3
2016-10-27T04:07:28.054Z,6.2
2016-10-27T04:07:48.657Z,6.2
2016-10-27T04:08:09.290Z,6.2
2016-10-27T04:08:29.852Z,6.2
2016-10-27T04:08:50.450Z,6.2
2016-10-27T04:09:11.013Z,6.2
2016-10-27T04:09:31.574Z,6.2
2016-10-27T04:09:52.163Z,6.2
2016-10-27T04:10:12.732Z,6.1
2016-10-27T04:10:33.324Z,6.1
2016-10-27T04:10:53.870Z,6.1
2016-10-27T04:11:14.442Z,6.1
2016-10-27T04:11:35.033Z,6.2
2016-10-27T04:11:55.592Z,6.1
2016-10-27T04:12:16.143Z,6.2
2016-10-27T04:12:36.713Z,6.1
2016-10-27T04:12:57.282Z,6.1
2016-10-27T04:13:17.851Z,6.1
2016-10-27T04:13:38.415Z,6.2
2016-10-27T04:13:58.989Z,6.1
2016-10-27T04:14:19.597Z,6.1
2016-10-27T04:14:40.201Z,6.1
2016-10-27T04:15:00.787Z,6.1
2016-10-27T04:15:21.369Z,6.1
2016-10-27T04:15:41.932Z,6.2
2016-10-27T04:16:02.495Z,6.1
2016-10-27T04:16:23.063Z,6.2
2016-10-27T04:16:43.661Z,6.2
2016-10-27T04:17:04.286Z,6.2
2016-10-27T04:17:24.851Z,6.2
2016-10-27T04:17:45.443Z,6.1
2016-10-27T04:18:06.012Z,6.1
2016-10-27T04:18:26.573Z,6.1
2016-10-27T04:18:47.165Z,6.2
2016-10-27T04:19:07.726Z,6.2
2016-10-27T04:19:28.353Z,6.3
2016-10-27T04:19:48.917Z,6.4
2016-10-27T04:20:09.488Z,6.2
2016-10-27T04:20:30.055Z,6.2
2016-10-27T04:20:50.612Z,6.3
2016-10-27T04:21:11.212Z,6.2
2016-10-27T04:21:31.802Z,6.3
2016-10-27T04:21:52.374Z,6.2
2016-10-27T04:22:12.952Z,6.2
2016-10-27T04:22:33.508Z,6.2
2016-10-27T04:22:54.072Z,6.3
2016-10-27T04:23:14.633Z,6.2
2016-10-27T04:23:35.203Z,6.3
2016-10-27T04:23:55.763Z,6.2
2016-10-27T04:24:17.254Z,6.2
2016-10-27T04:24:37.844Z,6.2
2016-10-27T04:24:58.437Z,6.2
2016-10-27T04:25:19.006Z,6.3
2016-10-27T04:25:39.572Z,6.3
2016-10-27T04:26:00.129Z,6.1
2016-10-27T04:26:20.754Z,6.2
2016-10-27T04:26:41.311Z,6.1
2016-10-27T04:27:01.881Z,6.1
2016-10-27T04:27:22.452Z,6.1
2016-10-27T04:27:43.064Z,6.2
2016-10-27T04:28:03.640Z,6.1
2016-10-27T04:28:24.253Z,6.2
2016-10-27T04:28:44.831Z,6.2
2016-10-27T04:29:05.404Z,6.1
2016-10-27T04:29:25.980Z,6.2
2016-10-27T04:29:46.544Z,6.1
2016-10-27T04:30:07.104Z,6.2
2016-10-27T04:30:27.734Z,6.1
2016-10-27T04:30:48.308Z,6.2
2016-10-27T04:31:08.881Z,6.1
2016-10-27T04:31:29.471Z,6.2
2016-10-27T04:31:50.043Z,6.1
2016-10-27T04:32:10.690Z,6.2
2016-10-27T04:32:31.248Z,6.2
2016-10-27T04:32:51.837Z,6.1
2016-10-27T04:33:12.435Z,6.2
2016-10-27T04:33:32.997Z,6.1
2016-10-27T04:33:53.563Z,6.1
2016-10-27T04:34:14.131Z,6.1
2016-10-27T04:34:34.690Z,6.1
2016-10-27T04:34:55.291Z,6.2
2016-10-27T04:35:15.855Z,6.2
2016-10-27T04:35:36.428Z,6.2
2016-10-27T04:35:57.206Z,6.1
2016-10-27T04:36:19.489Z,6.1
2016-10-27T04:36:40.051Z,6.2
2016-10-27T04:37:00.612Z,6.2
2016-10-27T04:37:21.232Z,6.2
2016-10-27T04:37:41.798Z,6.2
2016-10-27T04:38:02.361Z,6.1
2016-10-27T04:38:22.963Z,6.1
2016-10-27T04:38:43.546Z,6.1
2016-10-27T04:39:04.120Z,6.1
2016-10-27T04:39:24.714Z,6.1
2016-10-27T04:39:45.283Z,6.1
2016-10-27T04:40:05.854Z,6.1
2016-10-27T04:40:26.432Z,6.2
2016-10-27T04:40:46.985Z,6.2
2016-10-27T04:41:07.573Z,6.2
2016-10-27T04:41:28.175Z,6.2
2016-10-27T04:41:48.765Z,6.1
2016-10-27T04:42:09.337Z,6.1
2016-10-27T04:42:29.894Z,6.1
2016-10-27T04:42:50.463Z,6.1
2016-10-27T04:43:11.105Z,6.1
2016-10-27T04:43:31.705Z,6.2
2016-10-27T04:43:52.295Z,6.2